Time;durP1;ratioP1;P1;durP2;ratioP2;P2;SDS_P1;SDS_P2;PMS_P1;PMS_P2;Temp;Humidity;BMP_temperature;BMP_pressure;BME280_temperature;BME280_humidity;BME280_pressure;Samples;Min_cycle;Max_cycle;Signal;HPM_P1;HPM_P2
2024/04/22 00:01:50;;;;;;;;;;;;;;;11.87;39.84;101329.44;5246008;26;94357;-72
2024/04/22 00:04:16;;;;;;;;;;;;;;;11.86;39.94;101328.63;5217705;26;102429;-71
2024/04/22 00:06:45;;;;;;;;;;;;;;;11.83;40.22;101329.16;5272239;26;97950;-72
2024/04/22 00:09:11;;;;;;;;;;;;;;;11.81;39.71;101328.56;5248570;26;95731;-72
2024/04/22 00:11:37;;;;;;;;;;;;;;;11.79;39.74;101326.13;5254476;26;96473;-72
2024/04/22 00:14:03;;;;;;;;;;;;;;;11.78;40.10;101323.66;5191204;26;96906;-73
2024/04/22 00:16:29;;;;;;;;;;;;;;;11.76;40.11;101323.09;5230038;26;94649;-72
2024/04/22 00:18:55;;;;;;;;;;;;;;;11.74;40.12;101317.13;5256735;26;124482;-72
2024/04/22 00:21:21;;;;;;;;;;;;;;;11.73;39.78;101318.22;5230407;26;94466;-72
2024/04/22 00:23:47;;;;;;;;;;;;;;;11.69;39.62;101317.91;5202212;26;114824;-72
2024/04/22 00:26:13;;;;;;;;;;;;;;;11.68;40.12;101320.88;5197037;26;94421;-72
2024/04/22 00:28:39;;;;;;;;;;;;;;;11.66;40.19;101315.69;5247991;26;124527;-72
2024/04/22 00:31:05;;;;;;;;;;;;;;;11.63;40.25;101313.53;5248781;26;94820;-72
2024/04/22 00:33:31;;;;;;;;;;;;;;;11.62;39.63;101313.75;5251295;26;96900;-72
2024/04/22 00:35:58;;;;;;;;;;;;;;;11.60;39.78;101316.72;5219716;26;94594;-72
2024/04/22 00:38:27;;;;;;;;;;;;;;;11.59;39.68;101311.56;5222386;26;94315;-72
2024/04/22 00:40:55;;;;;;;;;;;;;;;11.57;39.63;101316.41;5250250;26;94228;-72
2024/04/22 00:43:20;;;;;;;;;;;;;;;11.54;40.00;101317.72;5248564;26;98081;-72
2024/04/22 00:45:46;;;;;;;;;;;;;;;11.53;39.71;101324.19;5223369;26;123669;-72
2024/04/22 00:48:14;;;;;;;;;;;;;;;11.51;40.13;101320.91;5195317;26;101517;-72
2024/04/22 00:50:40;;;;;;;;;;;;;;;11.50;40.05;101324.69;5226574;26;107906;-71
2024/04/22 00:53:06;;;;;;;;;;;;;;;11.48;40.19;101329.56;5255409;26;94283;-71
2024/04/22 00:55:32;;;;;;;;;;;;;;;11.47;40.13;101328.72;5207458;26;95168;-71
2024/04/22 00:58:01;;;;;;;;;;;;;;;11.45;39.88;101325.47;5244314;26;126626;-73
2024/04/22 01:00:27;;;;;;;;;;;;;;;11.43;40.19;101329.47;5230669;26;96253;-73
2024/04/22 01:02:53;;;;;;;;;;;;;;;11.41;39.68;101329.72;5272911;26;94577;-73
2024/04/22 01:05:19;;;;;;;;;;;;;;;11.40;40.23;101327.31;5226373;26;123542;-73
2024/04/22 01:07:45;;;;;;;;;;;;;;;11.38;39.85;101319.44;5260196;26;123826;-73
2024/04/22 01:10:11;;;;;;;;;;;;;;;11.38;39.73;101321.31;5246849;26;118883;-72
2024/04/22 01:12:37;;;;;;;;;;;;;;;11.36;40.13;101326.97;5221667;26;94601;-71
2024/04/22 01:15:06;;;;;;;;;;;;;;;11.34;40.14;101329.09;5209153;26;95542;-71
2024/04/22 01:17:43;;;;;;;;;;;;;;;11.34;39.77;101328.28;5203325;26;95629;-73
2024/04/22 01:20:09;;;;;;;;;;;;;;;11.31;40.04;101326.91;5200773;26;94381;-73
2024/04/22 01:22:35;;;;;;;;;;;;;;;11.30;40.22;101327.97;5260672;26;110351;-70
2024/04/22 01:25:05;;;;;;;;;;;;;;;11.28;39.79;101328.25;5243814;26;94472;-73
2024/04/22 01:27:32;;;;;;;;;;;;;;;11.27;39.72;101331.16;5225596;26;94553;-71
2024/04/22 01:30:05;;;;;;;;;;;;;;;11.25;39.69;101336.84;5199398;26;94669;-71
2024/04/22 01:32:33;;;;;;;;;;;;;;;11.25;40.06;101344.13;5233449;26;95280;-71
2024/04/22 01:35:01;;;;;;;;;;;;;;;11.21;40.20;101330.31;5272969;26;95592;-72
2024/04/22 01:37:27;;;;;;;;;;;;;;;11.21;40.30;101335.69;5188257;26;100090;-73
2024/04/22 01:39:53;;;;;;;;;;;;;;;11.20;40.08;101334.06;5249338;26;94528;-72
2024/04/22 01:42:19;;;;;;;;;;;;;;;11.19;40.17;101335.13;5203558;26;94283;-73
2024/04/22 01:44:45;;;;;;;;;;;;;;;11.19;40.05;101332.41;5272787;26;95345;-73
2024/04/22 01:47:11;;;;;;;;;;;;;;;11.16;39.74;101332.94;5249998;26;117444;-71
2024/04/22 01:49:37;;;;;;;;;;;;;;;11.16;39.79;101335.63;5227477;26;103395;-71
2024/04/22 01:52:03;;;;;;;;;;;;;;;11.16;39.88;101332.09;5247983;26;112101;-73
2024/04/22 01:54:29;;;;;;;;;;;;;;;11.13;39.73;101327.22;5231445;26;94399;-71
2024/04/22 01:56:55;;;;;;;;;;;;;;;11.11;39.93;101332.84;5273165;26;94520;-71
2024/04/22 01:59:22;;;;;;;;;;;;;;;11.10;40.25;101325.03;5186864;26;94123;-73
2024/04/22 02:01:48;;;;;;;;;;;;;;;11.09;40.17;101339.59;5197852;26;94440;-73
2024/04/22 02:04:14;;;;;;;;;;;;;;;11.07;40.03;101331.72;5228945;26;94254;-72
2024/04/22 02:06:40;;;;;;;;;;;;;;;11.06;40.18;101339.00;5226379;26;95660;-73
2024/04/22 02:09:06;;;;;;;;;;;;;;;11.05;39.70;101328.47;5248677;26;95766;-72
2024/04/22 02:11:32;;;;;;;;;;;;;;;11.04;39.94;101333.06;5198685;26;110909;-73
2024/04/22 02:13:58;;;;;;;;;;;;;;;11.03;39.92;101336.81;5270901;26;124530;-71
2024/04/22 02:16:24;;;;;;;;;;;;;;;11.02;40.24;101335.19;5227861;26;96107;-70
2024/04/22 02:18:53;;;;;;;;;;;;;;;11.00;39.98;101331.94;5245573;26;123823;-72
2024/04/22 02:21:21;;;;;;;;;;;;;;;11.00;39.77;101341.88;5219975;26;94993;-71
2024/04/22 02:23:47;;;;;;;;;;;;;;;10.98;39.92;101336.75;5194739;26;93995;-72
2024/04/22 02:26:13;;;;;;;;;;;;;;;10.97;39.90;101342.41;5250166;26;95193;-72
2024/04/22 02:28:39;;;;;;;;;;;;;;;10.96;40.24;101335.34;5249036;26;119469;-72
2024/04/22 02:31:05;;;;;;;;;;;;;;;10.95;40.01;101341.81;5250730;26;94175;-71
2024/04/22 02:33:31;;;;;;;;;;;;;;;10.93;39.65;101344.78;5220619;26;94606;-72
2024/04/22 02:35:57;;;;;;;;;;;;;;;10.93;40.05;101335.88;5254761;26;125205;-72
2024/04/22 02:38:23;;;;;;;;;;;;;;;10.91;39.86;101340.69;5253867;26;123181;-72
2024/04/22 02:40:49;;;;;;;;;;;;;;;10.89;39.93;101335.53;5197656;26;114329;-72
2024/04/22 02:43:15;;;;;;;;;;;;;;;10.88;40.31;101333.06;5250599;26;94822;-71
2024/04/22 02:45:41;;;;;;;;;;;;;;;10.87;40.29;101334.16;5198703;26;127255;-72
2024/04/22 02:48:07;;;;;;;;;;;;;;;10.86;39.76;101344.13;5249536;26;94240;-71
2024/04/22 02:50:33;;;;;;;;;;;;;;;10.85;39.75;101336.28;5191522;26;113734;-73
2024/04/22 02:52:59;;;;;;;;;;;;;;;10.84;39.97;101345.41;5228945;26;95815;-71
2024/04/22 02:55:28;;;;;;;;;;;;;;;10.81;40.01;101339.47;5246992;26;121973;-72
2024/04/22 02:57:55;;;;;;;;;;;;;;;10.81;39.92;101346.75;5235872;26;94275;-72
2024/04/22 03:00:21;;;;;;;;;;;;;;;10.79;40.05;101338.91;5196036;26;94740;-72
2024/04/22 03:02:47;;;;;;;;;;;;;;;10.78;40.23;101348.06;5260475;26;96121;-72
2024/04/22 03:05:13;;;;;;;;;;;;;;;10.77;39.98;101348.31;5221821;26;94475;-72
2024/04/22 03:07:39;;;;;;;;;;;;;;;10.76;40.21;101350.16;5220500;26;107330;-71
2024/04/22 03:10:05;;;;;;;;;;;;;;;10.76;39.89;101360.13;5229787;26;94237;-71
2024/04/22 03:12:32;;;;;;;;;;;;;;;10.75;40.25;101350.44;5226459;26;96123;-71
2024/04/22 03:14:58;;;;;;;;;;;;;;;10.74;40.21;101348.81;5251533;26;96877;-71
2024/04/22 03:17:25;;;;;;;;;;;;;;;10.73;40.09;101356.06;5221895;26;95469;-72
2024/04/22 03:19:51;;;;;;;;;;;;;;;10.73;39.96;101349.88;5266445;26;94494;-72
2024/04/22 03:22:17;;;;;;;;;;;;;;;10.73;40.23;101358.78;5253011;26;102241;-73
2024/04/22 03:24:43;;;;;;;;;;;;;;;10.73;39.80;101355.25;5230976;26;94307;-72
2024/04/22 03:27:09;;;;;;;;;;;;;;;10.74;40.04;101360.41;5245940;26;126748;-72
2024/04/22 03:29:35;;;;;;;;;;;;;;;10.74;39.98;101359.59;5231354;26;94495;-73
2024/04/22 03:32:01;;;;;;;;;;;;;;;10.73;40.21;101356.06;5231052;26;126442;-71
2024/04/22 03:34:27;;;;;;;;;;;;;;;10.74;40.05;101357.72;5249541;26;127666;-71
2024/04/22 03:36:53;;;;;;;;;;;;;;;10.73;39.83;101356.06;5230887;26;113541;-71
2024/04/22 03:39:19;;;;;;;;;;;;;;;10.75;40.17;101364.72;5256921;26;94390;-72
2024/04/22 03:41:45;;;;;;;;;;;;;;;10.75;39.84;101364.72;5230989;26;95782;-72
2024/04/22 03:44:11;;;;;;;;;;;;;;;10.76;39.86;101357.44;5253344;26;99428;-71
2024/04/22 03:52:06;;;;;;;;;;;;;;;10.76;40.03;101363.66;5245718;26;95638;-72
2024/04/22 03:54:32;;;;;;;;;;;;;;;10.77;40.15;101361.78;5221654;26;121794;-70
2024/04/22 03:56:58;;;;;;;;;;;;;;;10.78;40.25;101366.13;5256750;26;120324;-72
2024/04/22 03:59:24;;;;;;;;;;;;;;;10.76;40.20;101363.66;5193325;26;113710;-72
2024/04/22 04:01:50;;;;;;;;;;;;;;;10.77;40.05;101364.50;5228930;26;94476;-73
2024/04/22 04:04:16;;;;;;;;;;;;;;;10.78;39.91;101368.81;5188277;26;117095;-72
2024/04/22 04:06:42;;;;;;;;;;;;;;;10.78;39.90;101366.94;5219336;26;126219;-73
2024/04/22 04:09:08;;;;;;;;;;;;;;;10.79;40.22;101365.88;5175869;26;99821;-70
2024/04/22 04:11:36;;;;;;;;;;;;;;;10.79;39.87;101365.88;5241267;26;125356;-70
2024/04/22 04:14:07;;;;;;;;;;;;;;;10.80;40.02;101367.50;5227392;26;96370;-71
2024/04/22 04:16:33;;;;;;;;;;;;;;;10.81;40.03;101371.84;5201488;26;94534;-70
2024/04/22 04:18:59;;;;;;;;;;;;;;;10.84;40.15;101373.22;5192835;26;94307;-72
2024/04/22 04:21:25;;;;;;;;;;;;;;;10.85;39.88;101377.56;5227400;26;95792;-72
2024/04/22 04:23:51;;;;;;;;;;;;;;;10.86;39.85;101376.50;5247189;26;94870;-72
2024/04/22 04:26:17;;;;;;;;;;;;;;;10.89;39.77;101377.88;5242243;26;118799;-70
2024/04/22 04:28:46;;;;;;;;;;;;;;;10.92;39.80;101374.66;5211475;26;107451;-70
2024/04/22 04:31:12;;;;;;;;;;;;;;;10.93;40.02;101379.84;5230049;26;94986;-70
2024/04/22 04:33:38;;;;;;;;;;;;;;;10.98;40.07;101376.38;5195858;26;94455;-72
2024/04/22 04:36:07;;;;;;;;;;;;;;;11.00;39.67;101376.94;5211939;26;123258;-72
2024/04/22 04:38:33;;;;;;;;;;;;;;;11.02;39.60;101377.53;5186281;26;94120;-72
2024/04/22 04:40:59;;;;;;;;;;;;;;;11.05;40.09;101377.84;5249808;26;94521;-70
2024/04/22 04:43:25;;;;;;;;;;;;;;;11.07;39.85;101381.09;5248303;26;95167;-72
2024/04/22 04:45:52;;;;;;;;;;;;;;;11.12;39.57;101383.09;5273313;26;119215;-72
2024/04/22 04:48:20;;;;;;;;;;;;;;;11.17;39.83;101377.75;5195005;26;95066;-71
2024/04/22 04:50:46;;;;;;;;;;;;;;;11.21;40.03;101383.47;5188750;26;94992;-71
2024/04/22 04:53:12;;;;;;;;;;;;;;;11.25;39.69;101385.41;5243494;26;94558;-71
2024/04/22 04:55:39;;;;;;;;;;;;;;;11.28;39.48;101386.81;5243648;26;94752;-71
2024/04/22 04:58:05;;;;;;;;;;;;;;;11.33;39.89;101386.88;5185463;26;94761;-71
2024/04/22 05:00:32;;;;;;;;;;;;;;;11.39;39.41;101398.53;5195376;26;94679;-71
2024/04/22 05:02:58;;;;;;;;;;;;;;;11.43;39.82;101403.16;5245281;26;94427;-72
2024/04/22 05:05:24;;;;;;;;;;;;;;;11.50;39.43;101395.72;5222739;26;122296;-70
2024/04/22 05:07:50;;;;;;;;;;;;;;;11.60;39.70;101394.22;5240285;26;96526;-71
2024/04/22 05:10:17;;;;;;;;;;;;;;;11.74;39.55;101400.84;5238653;26;95539;-71
2024/04/22 05:12:43;;;;;;;;;;;;;;;11.83;39.17;101394.00;5269899;26;96000;-71
2024/04/22 05:15:09;;;;;;;;;;;;;;;11.95;39.23;101393.84;5244788;26;95311;-72
2024/04/22 05:17:35;;;;;;;;;;;;;;;12.08;39.62;101390.72;5221135;26;94530;-71
2024/04/22 05:20:01;;;;;;;;;;;;;;;12.18;39.59;101398.13;5246416;26;125948;-71
2024/04/22 05:22:27;;;;;;;;;;;;;;;12.24;39.48;101392.50;5244274;26;99613;-72
2024/04/22 05:24:53;;;;;;;;;;;;;;;12.27;39.51;101391.19;5204662;26;123324;-72
2024/04/22 05:27:19;;;;;;;;;;;;;;;12.33;39.59;101392.03;5217550;26;95862;-71
2024/04/22 05:29:44;;;;;;;;;;;;;;;12.38;39.33;101395.63;5245444;26;96429;-70
2024/04/22 05:32:10;;;;;;;;;;;;;;;12.55;38.98;101400.91;5239859;26;124391;-70
2024/04/22 05:37:21;;;;;;;;;;;;;;;12.72;39.45;101393.44;5232060;26;96015;-70
2024/04/22 05:39:47;;;;;;;;;;;;;;;12.78;39.17;101397.03;5238917;26;124818;-71
2024/04/22 05:42:13;;;;;;;;;;;;;;;12.85;39.24;101392.22;5252261;26;104978;-72
2024/04/22 05:44:39;;;;;;;;;;;;;;;12.92;39.50;101394.69;5224685;26;115583;-72
2024/04/22 05:47:05;;;;;;;;;;;;;;;12.98;39.32;101391.75;5244019;26;94479;-72
2024/04/22 05:49:31;;;;;;;;;;;;;;;13.10;38.79;101398.88;5217154;26;94441;-71
2024/04/22 05:51:57;;;;;;;;;;;;;;;13.19;39.06;101400.00;5201972;26;94542;-71
2024/04/22 05:54:23;;;;;;;;;;;;;;;13.35;39.13;101390.91;5215178;26;123557;-71
2024/04/22 05:56:49;;;;;;;;;;;;;;;13.55;38.67;101384.75;5215033;26;94125;-71
2024/04/22 05:59:16;;;;;;;;;;;;;;;13.68;38.56;101380.75;5200027;26;106482;-72
2024/04/22 06:01:42;;;;;;;;;;;;;;;13.70;39.07;101390.22;5224469;26;111847;-72
2024/04/22 06:04:08;;;;;;;;;;;;;;;13.75;38.95;101381.31;5245080;26;94515;-71
2024/04/22 06:06:36;;;;;;;;;;;;;;;13.84;38.91;101381.63;5200282;26;110114;-71
2024/04/22 06:09:06;;;;;;;;;;;;;;;13.95;38.70;101386.81;5246778;26;94811;-70
2024/04/22 06:11:32;;;;;;;;;;;;;;;13.91;39.02;101388.41;5246792;26;94773;-71
2024/04/22 06:13:58;;;;;;;;;;;;;;;14.13;38.89;101384.66;5243349;26;94352;-70
2024/04/22 06:16:26;;;;;;;;;;;;;;;14.43;38.70;101386.59;5240423;26;110218;-72
2024/04/22 06:18:52;;;;;;;;;;;;;;;14.62;38.53;101378.72;5247353;26;94288;-71
2024/04/22 06:21:19;;;;;;;;;;;;;;;14.83;38.72;101376.84;5249563;26;120686;-71
2024/04/22 06:23:45;;;;;;;;;;;;;;;15.04;38.63;101380.31;5247490;26;96754;-71
2024/04/22 06:26:13;;;;;;;;;;;;;;;15.26;38.04;101378.09;5227536;26;94767;-70
2024/04/22 06:28:39;;;;;;;;;;;;;;;15.50;38.32;101385.63;5230105;26;94396;-72
2024/04/22 06:31:05;;;;;;;;;;;;;;;15.71;38.62;101374.38;5223343;26;123925;-72
2024/04/22 06:33:33;;;;;;;;;;;;;;;15.97;38.53;101373.44;5272247;26;123824;-71
2024/04/22 06:35:59;;;;;;;;;;;;;;;16.24;38.09;101376.53;5227968;26;94919;-70
2024/04/22 06:38:25;;;;;;;;;;;;;;;16.59;38.50;101378.16;5249442;26;94410;-70
2024/04/22 06:40:51;;;;;;;;;;;;;;;17.03;38.10;101369.03;5186978;26;95328;-71
2024/04/22 06:43:17;;;;;;;;;;;;;;;17.63;37.56;101369.41;5221623;26;123939;-69
2024/04/22 06:45:44;;;;;;;;;;;;;;;18.38;37.18;101371.31;5186661;26;114811;-71
2024/04/22 06:48:09;;;;;;;;;;;;;;;19.18;36.46;101368.56;5187569;26;95154;-71
2024/04/22 06:50:36;;;;;;;;;;;;;;;19.94;36.36;101360.72;5227123;26;100725;-71
2024/04/22 06:53:02;;;;;;;;;;;;;;;20.65;35.57;101364.47;5269441;26;94683;-71
2024/04/22 06:55:28;;;;;;;;;;;;;;;21.35;36.45;101359.31;5251836;26;95619;-71
2024/04/22 06:57:53;;;;;;;;;;;;;;;21.94;35.30;101371.50;5246558;26;96274;-72
2024/04/22 07:00:20;;;;;;;;;;;;;;;22.45;35.40;101367.16;5201644;26;119641;-71
2024/04/22 07:02:46;;;;;;;;;;;;;;;22.94;35.88;101366.88;5250984;26;94726;-70
2024/04/22 07:05:12;;;;;;;;;;;;;;;23.24;35.52;101373.22;5222715;26;95533;-70
2024/04/22 07:07:39;;;;;;;;;;;;;;;23.57;35.73;101367.03;5243448;26;94331;-72
2024/04/22 07:10:05;;;;;;;;;;;;;;;23.77;35.77;101369.03;5252213;26;98473;-71
2024/04/22 07:12:31;;;;;;;;;;;;;;;23.41;36.39;101375.06;5223348;26;104165;-71
2024/04/22 07:14:57;;;;;;;;;;;;;;;23.61;36.22;101373.47;5225987;26;108378;-70
2024/04/22 07:17:23;;;;;;;;;;;;;;;23.86;36.02;101367.03;5223680;26;94942;-71
2024/04/22 07:19:50;;;;;;;;;;;;;;;22.81;36.95;101379.66;5195093;26;94495;-72
2024/04/22 07:22:16;;;;;;;;;;;;;;;23.25;36.48;101378.38;5222980;26;95423;-72
2024/04/22 07:24:45;;;;;;;;;;;;;;;23.74;36.11;101373.28;5190931;26;97502;-71
2024/04/22 07:27:12;;;;;;;;;;;;;;;24.03;36.23;101377.09;5226570;26;95242;-71
2024/04/22 07:29:38;;;;;;;;;;;;;;;24.39;35.67;101368.19;5249864;26;95381;-71
2024/04/22 07:32:04;;;;;;;;;;;;;;;24.66;35.76;101374.25;5273128;26;94282;-71
2024/04/22 07:34:30;;;;;;;;;;;;;;;24.91;36.12;101367.63;5215664;26;102303;-71
2024/04/22 07:37:18;;;;;;;;;;;;;;;25.21;36.14;101359.97;5191412;26;94682;-71
2024/04/22 07:39:45;;;;;;;;;;;;;;;25.09;35.63;101373.78;5204493;26;94550;-71
2024/04/22 07:42:11;;;;;;;;;;;;;;;24.59;37.28;101379.50;5243141;26;96666;-72
2024/04/22 07:44:37;;;;;;;;;;;;;;;24.42;36.42;101369.47;5230132;26;94642;-71
2024/04/22 07:47:03;;;;;;;;;;;;;;;23.90;37.66;101376.22;5193189;26;95008;-71
2024/04/22 07:49:30;;;;;;;;;;;;;;;23.44;37.57;101371.66;5226724;26;96509;-72
2024/04/22 07:51:55;;;;;;;;;;;;;;;23.03;37.97;101367.66;5261643;26;103927;-71
2024/04/22 07:54:22;;;;;;;;;;;;;;;22.65;37.66;101370.34;5244360;26;94902;-71
2024/04/22 07:56:48;;;;;;;;;;;;;;;22.25;37.75;101371.38;5199066;26;94611;-71
2024/04/22 07:59:14;;;;;;;;;;;;;;;21.84;37.71;101371.81;5244589;26;94361;-71
2024/04/22 08:01:41;;;;;;;;;;;;;;;21.36;37.96;101369.16;5246298;26;94908;-71
2024/04/22 08:04:08;;;;;;;;;;;;;;;20.93;38.17;101375.25;5271814;26;94626;-71
2024/04/22 08:06:37;;;;;;;;;;;;;;;20.56;38.77;101375.38;5228984;26;94309;-70
2024/04/22 08:09:07;;;;;;;;;;;;;;;20.20;39.16;101375.44;5269555;26;95578;-71
2024/04/22 08:11:33;;;;;;;;;;;;;;;19.82;38.97;101372.19;5218383;26;95835;-71
2024/04/22 08:13:59;;;;;;;;;;;;;;;19.50;39.23;101379.41;5222353;26;116079;-70
2024/04/22 08:16:25;;;;;;;;;;;;;;;19.16;38.98;101376.28;5195497;26;111264;-71
2024/04/22 08:18:51;;;;;;;;;;;;;;;18.85;39.55;101385.84;5270727;26;115229;-70
2024/04/22 08:21:17;;;;;;;;;;;;;;;19.01;39.05;101380.09;5249200;26;95937;-70
2024/04/22 08:23:43;;;;;;;;;;;;;;;19.02;39.02;101382.56;5247433;26;94360;-71
2024/04/22 08:26:09;;;;;;;;;;;;;;;18.96;38.90;101380.22;5243323;26;94477;-71
2024/04/22 08:28:35;;;;;;;;;;;;;;;19.65;38.06;101372.00;5239582;26;119961;-72
2024/04/22 08:31:06;;;;;;;;;;;;;;;22.55;35.88;101360.50;5223591;26;120212;-71
2024/04/22 08:33:32;;;;;;;;;;;;;;;23.93;35.44;101363.72;5218230;26;94832;-71
2024/04/22 08:35:58;;;;;;;;;;;;;;;25.70;34.16;101368.22;5215447;26;116121;-71
2024/04/22 08:38:24;;;;;;;;;;;;;;;26.72;34.26;101361.59;5240768;26;94584;-71
2024/04/22 08:40:51;;;;;;;;;;;;;;;27.61;33.99;101369.31;5226147;26;124231;-71
2024/04/22 08:43:17;;;;;;;;;;;;;;;27.70;34.59;101377.41;5240153;26;95944;-71
2024/04/22 08:45:44;;;;;;;;;;;;;;;26.75;35.78;101388.53;5189968;26;94455;-71
2024/04/22 08:48:10;;;;;;;;;;;;;;;26.79;35.70;101383.91;5219320;26;94317;-72
2024/04/22 08:50:40;;;;;;;;;;;;;;;26.87;35.35;101372.66;5244719;26;110074;-72
2024/04/22 08:53:08;;;;;;;;;;;;;;;27.65;35.08;101372.94;5187933;26;94907;-71
2024/04/22 08:55:38;;;;;;;;;;;;;;;28.35;35.04;101370.06;5195214;26;94377;-72
2024/04/22 08:58:04;;;;;;;;;;;;;;;27.51;35.83;101375.38;5226907;26;97148;-71
2024/04/22 09:00:30;;;;;;;;;;;;;;;28.13;35.42;101371.63;5218759;26;96760;-71
2024/04/22 09:02:56;;;;;;;;;;;;;;;27.31;36.22;101383.66;5220489;26;117091;-71
2024/04/22 09:05:22;;;;;;;;;;;;;;;27.85;35.43;101373.81;5266905;26;123516;-71
2024/04/22 09:07:52;;;;;;;;;;;;;;;29.14;35.17;101365.94;5220783;26;94409;-72
2024/04/22 09:10:19;;;;;;;;;;;;;;;28.49;35.17;101371.53;5222146;26;94190;-72
2024/04/22 09:12:58;;;;;;;;;;;;;;;28.48;35.66;101372.72;5222755;26;94388;-72
2024/04/22 09:15:24;;;;;;;;;;;;;;;29.65;34.71;101371.09;5199203;26;94424;-70
2024/04/22 09:17:51;;;;;;;;;;;;;;;29.29;35.73;101367.78;5242059;26;94422;-72
2024/04/22 09:20:20;;;;;;;;;;;;;;;28.37;35.92;101365.00;5243240;26;94492;-71
2024/04/22 09:22:46;;;;;;;;;;;;;;;27.66;36.79;101372.56;5246731;26;95108;-70
2024/04/22 09:25:14;;;;;;;;;;;;;;;26.99;37.30;101371.78;5225357;26;96006;-71
2024/04/22 09:27:44;;;;;;;;;;;;;;;26.33;36.81;101366.84;5216849;26;106023;-72
2024/04/22 09:30:10;;;;;;;;;;;;;;;25.79;37.80;101367.31;5246948;26;96597;-72
2024/04/22 09:32:36;;;;;;;;;;;;;;;25.34;38.45;101358.00;5190997;26;94819;-72
2024/04/22 09:35:12;;;;;;;;;;;;;;;24.81;38.44;101365.31;5250420;26;108836;-71
2024/04/22 09:37:39;;;;;;;;;;;;;;;24.26;38.52;101363.78;5213722;26;100142;-71
2024/04/22 09:40:05;;;;;;;;;;;;;;;24.02;37.96;101361.72;5192099;26;95392;-71
2024/04/22 09:42:31;;;;;;;;;;;;;;;24.15;37.78;101366.13;5197478;26;95887;-71
2024/04/22 09:44:57;;;;;;;;;;;;;;;24.42;37.42;101355.72;5214724;26;98810;-71
2024/04/22 09:47:23;;;;;;;;;;;;;;;23.87;38.10;101368.63;5250642;26;94451;-72
2024/04/22 09:49:49;;;;;;;;;;;;;;;23.36;37.85;101370.56;5221191;26;94497;-73
2024/04/22 09:52:15;;;;;;;;;;;;;;;22.89;38.59;101364.28;5238477;26;96174;-72
2024/04/22 09:54:41;;;;;;;;;;;;;;;22.53;38.73;101360.81;5220444;26;94593;-72
2024/04/22 09:57:07;;;;;;;;;;;;;;;22.26;37.99;101366.69;5191144;26;94716;-73
2024/04/22 09:59:33;;;;;;;;;;;;;;;22.00;38.25;101369.41;5220961;26;94447;-71
2024/04/22 10:01:59;;;;;;;;;;;;;;;21.76;38.90;101373.41;5198067;26;94249;-72
2024/04/22 10:04:26;;;;;;;;;;;;;;;21.58;37.93;101373.72;5217799;26;99127;-72
2024/04/22 10:06:53;;;;;;;;;;;;;;;21.43;38.20;101367.56;5243756;26;94584;-72
2024/04/22 10:09:20;;;;;;;;;;;;;;;21.33;38.82;101367.84;5187263;26;95166;-73
2024/04/22 10:11:47;;;;;;;;;;;;;;;21.30;38.84;101365.72;5189252;26;94908;-72
2024/04/22 10:14:16;;;;;;;;;;;;;;;21.37;38.00;101359.78;5199132;26;98204;-72
2024/04/22 10:16:53;;;;;;;;;;;;;;;21.30;38.01;101372.03;5224207;26;94573;-72
2024/04/22 10:19:19;;;;;;;;;;;;;;;21.37;38.09;101360.59;5253752;26;94857;-72
2024/04/22 10:21:49;;;;;;;;;;;;;;;22.95;36.62;101351.97;5238794;26;94173;-72
2024/04/22 10:24:26;;;;;;;;;;;;;;;22.47;36.95;101353.06;5225624;26;94513;-72
2024/04/22 10:26:54;;;;;;;;;;;;;;;22.02;37.96;101361.66;5243673;26;95178;-72
2024/04/22 10:29:20;;;;;;;;;;;;;;;21.65;38.52;101365.81;5246114;26;94891;-73
2024/04/22 10:31:46;;;;;;;;;;;;;;;21.27;37.77;101358.13;5227437;26;94447;-72
2024/04/22 10:34:12;;;;;;;;;;;;;;;20.94;38.61;101368.63;5247170;26;96176;-71
2024/04/22 10:36:38;;;;;;;;;;;;;;;20.60;38.38;101370.09;5244508;26;94315;-72
2024/04/22 10:39:05;;;;;;;;;;;;;;;20.29;39.07;101375.47;5220209;26;95230;-72
2024/04/22 10:41:31;;;;;;;;;;;;;;;20.00;38.54;101371.25;5247173;26;94174;-72
2024/04/22 10:43:58;;;;;;;;;;;;;;;19.74;38.98;101376.47;5265764;26;96164;-71
2024/04/22 10:46:24;;;;;;;;;;;;;;;19.51;39.06;101380.22;5248599;26;95777;-71
2024/04/22 10:48:52;;;;;;;;;;;;;;;19.36;38.73;101382.13;5224096;26;94553;-72
2024/04/22 10:51:20;;;;;;;;;;;;;;;19.33;38.74;101379.19;5221005;26;94803;-73
2024/04/22 10:53:46;;;;;;;;;;;;;;;19.40;38.15;101368.66;5219310;26;94819;-72
2024/04/22 10:56:12;;;;;;;;;;;;;;;19.55;38.55;101367.56;5219734;26;94713;-73
2024/04/22 10:58:38;;;;;;;;;;;;;;;19.80;37.93;101367.00;5248764;26;95673;-72
2024/04/22 11:01:05;;;;;;;;;;;;;;;20.07;38.15;101363.38;5198166;26;98936;-72
2024/04/22 11:03:31;;;;;;;;;;;;;;;20.22;37.99;101362.22;5228231;26;94810;-73
2024/04/22 11:06:03;;;;;;;;;;;;;;;20.50;38.38;101364.84;5194019;26;94304;-73
2024/04/22 11:08:30;;;;;;;;;;;;;;;21.29;36.79;101356.69;5195030;26;94458;-72
2024/04/22 11:10:57;;;;;;;;;;;;;;;23.32;35.58;101350.34;5245784;26;95113;-73
2024/04/22 11:13:23;;;;;;;;;;;;;;;23.82;35.52;101340.53;5244482;26;95409;-73
2024/04/22 11:15:49;;;;;;;;;;;;;;;25.29;35.11;101338.94;5217290;26;100149;-72
2024/04/22 11:18:21;;;;;;;;;;;;;;;25.69;35.32;101340.94;5253367;26;94641;-73
2024/04/22 11:20:48;;;;;;;;;;;;;;;26.52;35.11;101338.56;5230077;26;94380;-72
2024/04/22 11:23:14;;;;;;;;;;;;;;;26.29;35.20;101343.84;5220860;26;94800;-70
2024/04/22 11:25:41;;;;;;;;;;;;;;;25.84;36.03;101347.72;5228062;26;98529;-71
2024/04/22 11:28:07;;;;;;;;;;;;;;;25.26;36.47;101353.41;5216577;26;95419;-70
2024/04/22 11:30:33;;;;;;;;;;;;;;;24.69;37.29;101352.31;5225427;26;94516;-70
2024/04/22 11:33:02;;;;;;;;;;;;;;;24.15;37.58;101349.59;5253763;26;94710;-73
2024/04/22 11:35:28;;;;;;;;;;;;;;;23.62;37.38;101345.66;5226126;26;94589;-72
2024/04/22 11:37:56;;;;;;;;;;;;;;;23.15;38.05;101347.72;5217640;26;107260;-72
2024/04/22 11:40:23;;;;;;;;;;;;;;;22.69;38.41;101339.13;5252017;26;94390;-70
2024/04/22 11:42:49;;;;;;;;;;;;;;;22.32;38.66;101345.34;5258094;26;95895;-72
2024/04/22 11:45:15;;;;;;;;;;;;;;;21.99;37.92;101354.88;5250028;26;94322;-72
2024/04/22 11:47:42;;;;;;;;;;;;;;;21.76;37.98;101348.72;5273456;26;94319;-71
2024/04/22 11:50:08;;;;;;;;;;;;;;;21.59;38.69;101350.66;5219598;26;94688;-72
2024/04/22 11:52:34;;;;;;;;;;;;;;;21.51;38.76;101350.31;5225716;26;94758;-72
2024/04/22 11:55:00;;;;;;;;;;;;;;;21.46;38.76;101350.47;5247337;26;94399;-71
2024/04/22 11:57:26;;;;;;;;;;;;;;;21.44;38.63;101351.91;5187646;26;94743;-72
2024/04/22 11:59:52;;;;;;;;;;;;;;;21.50;37.79;101339.69;5227617;26;94479;-72
2024/04/22 12:02:18;;;;;;;;;;;;;;;21.60;38.33;101346.78;5250465;26;95121;-72
2024/04/22 12:04:44;;;;;;;;;;;;;;;21.79;37.47;101350.03;5199642;26;96658;-71
2024/04/22 12:07:10;;;;;;;;;;;;;;;22.22;37.40;101343.75;5248070;26;100921;-72
2024/04/22 12:09:36;;;;;;;;;;;;;;;22.42;37.41;101336.78;5247704;26;94724;-72
2024/04/22 12:12:03;;;;;;;;;;;;;;;22.54;36.67;101329.47;5244898;26;94279;-71
2024/04/22 12:14:29;;;;;;;;;;;;;;;22.64;36.90;101325.56;5226347;26;94663;-72
2024/04/22 12:16:55;;;;;;;;;;;;;;;22.74;37.06;101324.41;5246738;26;95681;-71
2024/04/22 12:19:21;;;;;;;;;;;;;;;22.84;37.14;101328.75;5199419;26;96064;-72
2024/04/22 12:21:48;;;;;;;;;;;;;;;22.85;37.16;101317.41;5225023;26;95427;-71
2024/04/22 12:24:14;;;;;;;;;;;;;;;23.83;36.29;101315.41;5229204;26;95600;-72
2024/04/22 12:26:40;;;;;;;;;;;;;;;24.93;35.65;101312.16;5195158;26;94940;-72
2024/04/22 12:29:07;;;;;;;;;;;;;;;25.81;35.32;101307.00;5253818;26;94842;-71
2024/04/22 12:31:33;;;;;;;;;;;;;;;26.20;35.47;101300.59;5227660;26;94698;-71
2024/04/22 12:33:59;;;;;;;;;;;;;;;26.37;34.94;101304.19;5274643;26;94455;-71
2024/04/22 12:36:26;;;;;;;;;;;;;;;26.09;35.43;101307.00;5195973;26;94324;-71
2024/04/22 12:38:52;;;;;;;;;;;;;;;25.69;36.40;101305.84;5221838;26;94083;-71